Time;durP1;ratioP1;P1;durP2;ratioP2;P2;SDS_P1;SDS_P2;PMS_P1;PMS_P2;Temp;Humidity;BMP_temperature;BMP_pressure;BME280_temperature;BME280_humidity;BME280_pressure;Samples;Min_cycle;Max_cycle;Signal;HPM_P1;HPM_P2
2023/01/08 00:00:47;;;;;;;34.78;22.67;;;;;;;3.23;52.27;94309.50;5052620;28;20037;-76
2023/01/08 00:03:13;;;;;;;39.72;22.67;;;;;;;3.54;52.21;94338.59;5052733;28;20044;-76
2023/01/08 00:05:39;;;;;;;33.97;20.73;;;;;;;3.43;51.83;94314.06;5052096;28;20068;-77
2023/01/08 00:08:07;;;;;;;30.40;18.70;;;;;;;3.43;52.26;94337.72;5051722;28;20041;-76
2023/01/08 00:10:36;;;;;;;28.95;18.70;;;;;;;3.43;52.03;94324.59;5053631;28;20080;-76
2023/01/08 00:13:02;;;;;;;25.17;16.15;;;;;;;3.34;52.12;94323.50;5052936;28;20013;-76
2023/01/08 00:15:28;;;;;;;24.88;17.70;;;;;;;3.36;52.32;94331.94;5051760;28;20037;-76
2023/01/08 00:17:54;;;;;;;27.13;17.45;;;;;;;3.39;52.37;94329.56;5054886;28;20050;-76
2023/01/08 00:20:19;;;;;;;18.60;13.27;;;;;;;3.28;52.29;94314.78;5054667;28;20603;-75
2023/01/08 00:22:48;;;;;;;14.52;10.88;;;;;;;3.18;52.19;94313.97;5055500;28;20574;-76
2023/01/08 00:25:13;;;;;;;12.13;8.82;;;;;;;2.97;51.75;94271.00;5048937;28;20025;-76
2023/01/08 00:27:38;;;;;;;11.25;7.35;;;;;;;3.25;51.93;94333.72;5055238;28;20032;-76
2023/01/08 00:30:04;;;;;;;10.23;7.78;;;;;;;3.35;51.74;94327.72;5053488;28;20049;-76
2023/01/08 00:32:30;;;;;;;11.13;6.05;;;;;;;3.14;51.84;94300.50;5051471;28;20037;-76
2023/01/08 00:34:55;;;;;;;6.82;5.45;;;;;;;3.26;51.67;94321.34;5059807;28;20049;-75
2023/01/08 00:37:20;;;;;;;8.32;5.70;;;;;;;3.30;51.69;94315.34;5055401;28;20040;-75
2023/01/08 00:39:46;;;;;;;8.23;5.97;;;;;;;3.34;51.51;94329.53;5058477;28;20053;-76
2023/01/08 00:42:11;;;;;;;5.90;4.75;;;;;;;3.28;51.77;94335.81;5054248;28;20038;-76
2023/01/08 00:44:37;;;;;;;10.00;6.85;;;;;;;3.37;51.71;94334.31;5054030;28;20033;-76
2023/01/08 00:47:02;;;;;;;12.05;7.43;;;;;;;3.22;52.04;94315.81;5051522;28;20048;-75
2023/01/08 00:49:28;;;;;;;8.90;7.28;;;;;;;3.28;51.94;94329.78;5049423;28;20017;-76
2023/01/08 00:51:53;;;;;;;8.90;6.50;;;;;;;3.19;51.79;94324.19;5052083;28;20052;-76
2023/01/08 00:54:19;;;;;;;9.45;7.05;;;;;;;2.99;52.10;94284.66;5054606;28;20040;-76
2023/01/08 00:56:44;;;;;;;9.00;6.85;;;;;;;3.09;52.23;94326.78;5053496;28;20041;-76
2023/01/08 00:59:09;;;;;;;8.15;6.18;;;;;;;3.30;51.87;94339.00;5051154;28;20041;-76
2023/01/08 01:01:35;;;;;;;8.65;5.93;;;;;;;3.34;51.84;94334.81;5052834;28;20056;-75
2023/01/08 01:04:00;;;;;;;7.13;5.70;;;;;;;3.29;51.54;94332.16;5051749;28;20033;-76
2023/01/08 01:06:26;;;;;;;7.38;5.43;;;;;;;3.32;51.71;94346.63;5052535;28;20063;-75
2023/01/08 01:08:51;;;;;;;5.05;4.43;;;;;;;3.26;51.71;94322.16;5059300;28;20060;-76
2023/01/08 01:11:20;;;;;;;6.55;4.28;;;;;;;3.18;52.24;94341.03;5051909;28;20041;-75
2023/01/08 01:13:46;;;;;;;7.18;4.65;;;;;;;3.01;52.31;94327.25;5051994;28;20851;-76
2023/01/08 01:16:11;;;;;;;11.00;5.82;;;;;;;3.11;52.11;94335.19;5052731;28;20017;-76
2023/01/08 01:18:36;;;;;;;10.55;5.00;;;;;;;2.79;52.13;94274.06;5052690;28;20409;-76
2023/01/08 01:21:28;;;;;;;10.38;5.85;;;;;;;3.21;52.03;94327.38;5052596;28;20075;-76
2023/01/08 01:23:56;;;;;;;10.68;6.15;;;;;;;3.17;52.17;94336.81;5049264;28;20041;-76
2023/01/08 01:26:22;;;;;;;9.85;5.70;;;;;;;3.08;52.34;94330.47;5048577;28;20637;-75
2023/01/08 01:28:50;;;;;;;9.43;5.93;;;;;;;3.07;52.37;94328.88;5050016;28;20563;-75
2023/01/08 01:31:16;;;;;;;8.77;6.57;;;;;;;3.03;52.69;94329.63;5052149;28;20481;-76
2023/01/08 01:33:42;;;;;;;10.07;5.70;;;;;;;3.05;52.51;94330.94;5052775;28;20049;-76
2023/01/08 01:36:10;;;;;;;5.43;4.45;;;;;;;2.97;52.61;94308.59;5052847;28;20037;-76
2023/01/08 01:38:35;;;;;;;5.25;4.50;;;;;;;3.14;52.49;94329.44;5050436;28;20033;-76
2023/01/08 01:41:01;;;;;;;8.02;4.07;;;;;;;3.22;52.18;94328.97;5053604;28;20576;-76
2023/01/08 01:43:38;;;;;;;7.85;4.68;;;;;;;3.23;52.29;94319.25;5051370;28;20034;-75
2023/01/08 01:46:15;;;;;;;9.00;5.57;;;;;;;3.17;52.12;94312.38;5058430;28;20025;-76
2023/01/08 01:48:41;;;;;;;12.18;7.40;;;;;;;2.98;52.45;94298.88;5054261;28;20029;-75
2023/01/08 01:51:07;;;;;;;12.98;8.18;;;;;;;3.04;52.81;94320.72;5053260;28;20069;-74
2023/01/08 01:53:35;;;;;;;11.57;6.35;;;;;;;2.97;52.91;94318.28;5051631;28;20095;-76
2023/01/08 01:56:03;;;;;;;7.82;5.38;;;;;;;3.00;52.64;94299.38;5050945;28;20033;-77
2023/01/08 01:58:30;;;;;;;10.45;6.70;;;;;;;3.10;52.56;94315.22;5048901;28;20021;-76
2023/01/08 02:00:59;;;;;;;6.57;5.30;;;;;;;2.89;52.62;94293.28;5051592;28;20028;-76
2023/01/08 02:03:30;;;;;;;9.18;5.85;;;;;;;3.04;52.50;94316.22;5049918;28;20128;-76
2023/01/08 02:06:36;;;;;;;6.65;4.60;;;;;;;3.01;52.48;94318.56;5058780;28;20068;-76
2023/01/08 02:09:16;;;;;;;5.88;4.50;;;;;;;2.80;52.82;94294.78;5045475;28;20044;-75
2023/01/08 02:12:15;;;;;;;6.75;4.68;;;;;;;2.90;52.75;94307.19;5048324;28;20030;-76
2023/01/08 02:15:01;;;;;;;7.38;6.05;;;;;;;2.90;52.54;94286.19;5050579;28;20068;-76
2023/01/08 02:17:35;;;;;;;8.85;5.22;;;;;;;2.77;52.89;94297.13;5051024;28;20381;-76
2023/01/08 02:20:09;;;;;;;9.40;5.95;;;;;;;2.59;53.08;94284.41;5048995;28;20045;-76
2023/01/08 02:22:40;;;;;;;8.85;6.57;;;;;;;2.69;53.09;94279.22;5049769;28;20044;-75
2023/01/08 02:25:30;;;;;;;9.38;6.47;;;;;;;2.84;52.82;94297.72;5048201;28;20079;-76
2023/01/08 02:27:59;;;;;;;8.50;6.10;;;;;;;2.51;52.98;94265.44;5050116;28;20049;-76
2023/01/08 02:30:25;;;;;;;12.60;7.07;;;;;;;2.77;52.89;94287.44;5050452;28;20025;-75
2023/01/08 02:32:50;;;;;;;12.45;7.78;;;;;;;2.63;53.23;94282.84;5049535;28;20088;-76
2023/01/08 02:35:15;;;;;;;14.38;9.00;;;;;;;2.76;53.18;94287.66;5051263;28;20622;-75
2023/01/08 02:37:41;;;;;;;9.88;7.70;;;;;;;2.70;53.17;94291.28;5051262;28;20067;-76
2023/01/08 02:40:13;;;;;;;14.18;8.55;;;;;;;2.73;53.26;94293.44;5049566;28;20029;-75
2023/01/08 02:42:58;;;;;;;15.35;7.80;;;;;;;2.76;52.92;94291.09;5048211;28;20045;-76
2023/01/08 02:45:24;;;;;;;9.65;6.70;;;;;;;2.69;53.26;94289.75;5048408;28;20087;-76
2023/01/08 02:48:14;;;;;;;11.73;7.65;;;;;;;2.37;53.39;94250.38;5050643;28;20041;-76
2023/01/08 02:50:58;;;;;;;10.32;7.32;;;;;;;2.53;53.52;94279.13;5052407;28;20182;-76
2023/01/08 02:53:30;;;;;;;12.88;6.35;;;;;;;2.57;53.48;94278.59;5052850;28;20045;-76
2023/01/08 02:56:09;;;;;;;10.95;6.47;;;;;;;2.49;53.47;94254.41;5051818;28;20110;-76
2023/01/08 02:58:37;;;;;;;8.43;6.28;;;;;;;2.49;53.47;94264.91;5052940;28;20051;-76
2023/01/08 03:01:07;;;;;;;10.30;5.97;;;;;;;2.61;53.39;94269.97;5051897;28;20061;-75
2023/01/08 03:03:33;;;;;;;8.98;6.22;;;;;;;2.56;53.36;94275.19;5049135;28;20137;-76
2023/01/08 03:06:06;;;;;;;8.32;6.55;;;;;;;2.23;53.70;94230.84;5051278;28;20039;-75
2023/01/08 03:08:35;;;;;;;10.32;7.32;;;;;;;2.44;53.80;94271.97;5047905;28;20053;-77
2023/01/08 03:11:06;;;;;;;11.52;7.85;;;;;;;2.48;54.08;94288.78;5051483;28;20041;-76
2023/01/08 03:13:44;;;;;;;10.02;7.20;;;;;;;2.39;54.28;94290.28;5048197;28;20035;-75
2023/01/08 03:16:16;;;;;;;7.15;5.40;;;;;;;2.41;54.11;94283.72;5048795;28;20047;-76
2023/01/08 03:18:48;;;;;;;6.05;4.70;;;;;;;2.49;53.77;94287.75;5045864;28;20670;-75
2023/01/08 03:21:15;;;;;;;8.73;5.40;;;;;;;2.42;53.96;94284.53;5055083;28;20049;-76
2023/01/08 03:23:43;;;;;;;7.35;5.38;;;;;;;2.48;53.98;94294.03;5049589;28;20033;-76
2023/01/08 03:26:12;;;;;;;6.65;4.50;;;;;;;2.51;53.85;94277.78;5048136;28;20037;-76
2023/01/08 03:28:46;;;;;;;6.97;5.13;;;;;;;2.56;53.59;94290.16;5049717;28;20098;-76
2023/01/08 03:31:14;;;;;;;7.35;5.70;;;;;;;2.55;53.62;94286.72;5049943;28;20060;-75
2023/01/08 03:33:43;;;;;;;9.25;5.75;;;;;;;2.55;53.57;94289.34;5049858;28;20045;-75
2023/01/08 03:36:13;;;;;;;8.90;5.55;;;;;;;2.52;53.96;94290.66;5049500;28;20765;-76
2023/01/08 03:38:43;;;;;;;7.25;5.05;;;;;;;2.56;53.32;94287.53;5049489;28;20568;-77
2023/01/08 03:41:12;;;;;;;9.93;6.18;;;;;;;2.49;53.76;94285.91;5056002;28;20098;-76
2023/01/08 03:43:38;;;;;;;7.57;5.35;;;;;;;2.36;53.66;94270.56;5048325;28;20021;-76
2023/01/08 03:46:08;;;;;;;10.07;5.57;;;;;;;2.42;53.70;94284.53;5049108;28;20033;-76
2023/01/08 03:48:35;;;;;;;11.68;6.18;;;;;;;2.41;54.01;94282.94;5046645;28;20052;-76
2023/01/08 03:51:01;;;;;;;8.38;6.18;;;;;;;2.49;53.82;94285.91;5049111;28;20049;-76
2023/01/08 03:53:27;;;;;;;9.20;6.45;;;;;;;2.34;53.73;94267.41;5046613;28;20062;-76
2023/01/08 03:55:52;;;;;;;9.73;5.78;;;;;;;2.43;53.51;94286.91;5049161;28;20038;-76
2023/01/08 03:58:17;;;;;;;10.52;6.75;;;;;;;2.35;53.38;94273.47;5048041;28;20457;-74
2023/01/08 04:00:43;;;;;;;9.95;6.05;;;;;;;2.47;53.44;94280.13;5050045;28;20040;-75
2023/01/08 04:03:08;;;;;;;10.82;7.18;;;;;;;2.39;53.87;94285.84;5052937;28;20060;-76
2023/01/08 04:05:33;;;;;;;10.65;6.70;;;;;;;2.32;54.04;94284.44;5053714;28;20068;-76
2023/01/08 04:07:59;;;;;;;8.88;5.93;;;;;;;2.31;54.03;94283.66;5052575;28;20053;-76
2023/01/08 04:10:25;;;;;;;11.95;7.40;;;;;;;2.25;54.21;94279.41;5050117;28;20506;-76
2023/01/08 04:12:51;;;;;;;12.15;7.95;;;;;;;2.29;54.17;94280.50;5059168;28;20097;-74
2023/01/08 04:15:16;;;;;;;12.60;8.18;;;;;;;2.27;54.35;94282.56;5049291;28;20083;-75
2023/01/08 04:17:42;;;;;;;11.65;7.60;;;;;;;2.32;54.04;94280.00;5057327;28;20137;-75
2023/01/08 04:20:08;;;;;;;9.13;7.63;;;;;;;2.38;53.96;94286.88;5049453;28;20134;-75
2023/01/08 04:22:33;;;;;;;10.27;7.63;;;;;;;2.18;54.15;94278.03;5050440;28;20633;-76
2023/01/08 04:24:59;;;;;;;8.70;6.82;;;;;;;2.05;54.57;94279.22;5052522;28;20025;-76
2023/01/08 04:27:24;;;;;;;9.32;6.78;;;;;;;2.21;54.33;94282.78;5051598;28;20045;-75
2023/01/08 04:29:49;;;;;;;8.43;6.38;;;;;;;2.27;54.13;94287.81;5053100;28;20029;-75
2023/01/08 04:32:15;;;;;;;12.02;6.50;;;;;;;2.36;53.80;94291.56;5053256;28;20033;-75
2023/01/08 04:34:40;;;;;;;8.57;5.97;;;;;;;2.23;53.62;94273.63;5052341;28;20555;-76
2023/01/08 04:37:06;;;;;;;9.73;6.50;;;;;;;2.19;54.10;94274.38;5052687;28;20033;-75
2023/01/08 04:39:31;;;;;;;11.48;6.95;;;;;;;2.30;54.05;94289.97;5050302;28;20056;-75
2023/01/08 04:41:56;;;;;;;10.70;8.02;;;;;;;2.20;54.25;94284.63;5051598;28;20056;-76
2023/01/08 04:44:22;;;;;;;10.40;7.47;;;;;;;2.02;54.41;94269.22;5052102;28;20033;-74
2023/01/08 04:46:47;;;;;;;15.50;8.98;;;;;;;2.16;54.01;94275.66;5053350;28;20033;-77
2023/01/08 04:49:13;;;;;;;11.10;7.32;;;;;;;2.21;54.32;94280.94;5052895;28;20027;-76
2023/01/08 04:51:38;;;;;;;8.55;6.88;;;;;;;2.27;54.13;94287.81;5050966;28;20034;-76
2023/01/08 04:54:03;;;;;;;13.98;7.70;;;;;;;2.21;54.32;94280.94;5059794;28;20067;-76
2023/01/08 04:56:30;;;;;;;25.25;9.27;;;;;;;1.94;54.50;94262.59;5050635;28;20056;-76
2023/01/08 04:58:55;;;;;;;10.85;6.75;;;;;;;2.11;54.35;94277.47;5052550;28;20060;-76
2023/01/08 05:01:23;;;;;;;10.10;7.45;;;;;;;2.12;54.28;94279.81;5055142;28;20021;-76
2023/01/08 05:03:53;;;;;;;11.00;6.38;;;;;;;2.11;54.42;94293.97;5052631;28;20026;-76
2023/01/08 05:06:18;;;;;;;11.95;8.32;;;;;;;2.19;54.05;94296.16;5059413;28;20091;-76
2023/01/08 05:08:44;;;;;;;12.48;8.32;;;;;;;2.08;54.15;94279.53;5052324;28;20049;-76
2023/01/08 05:11:09;;;;;;;14.15;7.30;;;;;;;2.14;54.18;94285.63;5054964;28;20552;-75
2023/01/08 05:13:34;;;;;;;10.65;6.97;;;;;;;2.17;54.13;94310.56;5055070;28;20030;-75
2023/01/08 05:16:00;;;;;;;19.63;11.93;;;;;;;2.06;54.21;94288.66;5054738;28;20063;-76
2023/01/08 05:18:27;;;;;;;18.85;10.05;;;;;;;2.18;54.12;94291.16;5050844;28;20055;-76
2023/01/08 05:20:52;;;;;;;21.17;11.70;;;;;;;2.08;54.11;94286.59;5050656;28;20467;-76
2023/01/08 05:23:18;;;;;;;18.38;10.50;;;;;;;1.94;54.55;94272.31;5050475;28;20041;-75
2023/01/08 05:25:43;;;;;;;17.25;9.57;;;;;;;2.11;54.51;94290.56;5047801;28;20075;-76
2023/01/08 05:28:08;;;;;;;13.82;9.27;;;;;;;2.09;54.47;94298.69;5051835;28;20485;-76
2023/01/08 05:30:35;;;;;;;12.82;9.38;;;;;;;2.06;54.03;94283.41;5050517;28;20033;-76
2023/01/08 05:33:01;;;;;;;13.38;8.75;;;;;;;1.96;54.38;94275.47;5050176;28;20037;-75
2023/01/08 05:35:26;;;;;;;15.25;10.07;;;;;;;1.91;54.47;94296.41;5048855;28;20045;-76
2023/01/08 05:37:52;;;;;;;12.68;8.57;;;;;;;1.94;54.54;94286.22;5051302;28;20083;-77
2023/01/08 05:40:17;;;;;;;19.85;9.60;;;;;;;1.96;54.45;94281.50;5052162;28;20084;-76
2023/01/08 05:42:42;;;;;;;12.40;9.52;;;;;;;2.03;54.65;94302.28;5049234;28;20045;-75
2023/01/08 05:45:08;;;;;;;14.90;10.73;;;;;;;1.92;54.85;94284.84;5051676;28;20052;-76
2023/01/08 05:47:34;;;;;;;12.68;10.20;;;;;;;1.90;54.60;94310.56;5048961;28;20041;-76
2023/01/08 05:49:59;;;;;;;10.98;7.85;;;;;;;1.84;54.46;94293.94;5048709;28;20033;-76
2023/01/08 05:52:25;;;;;;;10.82;7.70;;;;;;;1.87;54.48;94300.53;5047375;28;20481;-75
2023/01/08 05:54:51;;;;;;;11.82;7.90;;;;;;;1.84;54.77;94304.44;5047535;28;20029;-75
2023/01/08 05:57:16;;;;;;;11.98;7.90;;;;;;;1.81;54.94;94285.78;5049159;28;20033;-75
2023/01/08 05:59:42;;;;;;;12.15;8.40;;;;;;;1.76;54.95;94304.09;5047834;28;20033;-75
2023/01/08 06:02:07;;;;;;;15.93;9.00;;;;;;;1.56;55.20;94287.09;5049197;28;20048;-76
2023/01/08 06:04:33;;;;;;;14.05;10.70;;;;;;;1.61;55.26;94288.97;5050581;28;20044;-76
2023/01/08 06:06:58;;;;;;;14.68;8.35;;;;;;;1.64;55.16;94294.53;5047029;28;20017;-76
2023/01/08 06:09:24;;;;;;;14.10;8.55;;;;;;;1.62;54.98;94299.19;5049103;28;20030;-75
2023/01/08 06:11:49;;;;;;;8.48;6.07;;;;;;;1.60;55.38;94309.16;5050517;28;20072;-76
2023/01/08 06:14:15;;;;;;;10.38;6.38;;;;;;;1.65;55.05;94298.72;5049063;28;20446;-76
2023/01/08 06:16:44;;;;;;;10.07;6.35;;;;;;;1.39;55.32;94267.22;5049902;28;20438;-75
2023/01/08 06:19:10;;;;;;;9.50;7.53;;;;;;;1.57;55.29;94312.25;5052894;28;20048;-76
2023/01/08 06:21:36;;;;;;;13.15;8.40;;;;;;;1.59;55.44;94299.69;5051499;28;20056;-75
2023/01/08 06:24:05;;;;;;;15.88;9.57;;;;;;;1.68;55.41;94308.72;5042030;28;20064;-76
2023/01/08 06:26:30;;;;;;;20.88;12.82;;;;;;;1.54;55.32;94288.38;5043575;28;20044;-76
2023/01/08 06:28:56;;;;;;;20.48;11.75;;;;;;;1.53;55.67;94292.00;5044319;28;20036;-76
2023/01/08 06:31:21;;;;;;;23.38;12.45;;;;;;;1.64;55.62;94315.50;5045943;28;20044;-75
2023/01/08 06:33:47;;;;;;;24.65;14.93;;;;;;;1.68;55.43;94300.84;5042581;28;20052;-75
2023/01/08 06:36:15;;;;;;;19.75;12.15;;;;;;;1.46;55.70;94284.34;5036691;28;20056;-76
2023/01/08 06:38:40;;;;;;;21.63;13.75;;;;;;;1.49;55.74;94296.97;5042334;28;20067;-75
2023/01/08 06:41:09;;;;;;;18.52;12.45;;;;;;;1.70;55.14;94333.91;5044020;28;20052;-76
2023/01/08 06:43:35;;;;;;;21.83;16.00;;;;;;;1.71;55.53;94317.16;5044082;28;20108;-75
2023/01/08 06:46:00;;;;;;;23.85;15.25;;;;;;;1.74;55.63;94327.13;5047637;28;20056;-75
2023/01/08 06:48:26;;;;;;;23.33;15.68;;;;;;;1.54;55.91;94311.97;5043766;28;20623;-76
2023/01/08 06:50:52;;;;;;;27.05;15.73;;;;;;;1.78;55.95;94336.09;5044071;28;20056;-76
2023/01/08 06:53:18;;;;;;;24.48;15.88;;;;;;;1.84;55.76;94328.03;5036739;28;20053;-76
2023/01/08 06:55:44;;;;;;;22.85;15.93;;;;;;;1.93;56.12;94333.66;5038353;28;20083;-76
2023/01/08 06:58:11;;;;;;;25.13;15.82;;;;;;;1.88;55.87;94320.50;5048885;28;20021;-76
2023/01/08 07:00:37;;;;;;;27.67;15.93;;;;;;;1.92;55.78;94316.34;5044443;28;20057;-76
2023/01/08 07:03:03;;;;;;;27.88;16.98;;;;;;;2.03;55.88;94339.03;5046236;28;20554;-76
2023/01/08 07:05:29;;;;;;;29.27;18.48;;;;;;;1.98;55.88;94328.47;5040999;28;20041;-77
2023/01/08 07:07:54;;;;;;;32.05;20.33;;;;;;;2.07;55.89;94329.63;5050080;28;20712;-76
2023/01/08 07:10:20;;;;;;;35.88;22.75;;;;;;;2.15;55.84;94334.44;5043398;28;20484;-75
2023/01/08 07:12:45;;;;;;;37.85;25.10;;;;;;;2.20;55.70;94337.13;5041296;28;20037;-76
2023/01/08 07:15:10;;;;;;;49.47;28.33;;;;;;;2.30;56.28;94350.34;5048271;28;20045;-75
2023/01/08 07:17:36;;;;;;;43.83;28.02;;;;;;;2.18;56.47;94331.31;5043625;28;20049;-75
2023/01/08 07:20:04;;;;;;;43.22;28.35;;;;;;;2.31;56.37;94354.53;5032771;28;20056;-75
2023/01/08 07:22:29;;;;;;;43.10;28.48;;;;;;;2.31;56.39;94330.09;5041470;28;20029;-74
2023/01/08 07:24:54;;;;;;;43.40;30.52;;;;;;;2.41;56.03;94333.63;5037502;28;20080;-75
2023/01/08 07:27:20;;;;;;;46.10;30.00;;;;;;;2.57;56.50;94350.31;5040391;28;20041;-74
2023/01/08 07:29:45;;;;;;;43.42;29.45;;;;;;;2.26;57.62;94338.72;5042415;28;20041;-74
2023/01/08 07:32:11;;;;;;;49.80;32.53;;;;;;;2.45;57.56;94336.56;5035618;28;20064;-75
2023/01/08 07:34:36;;;;;;;49.00;28.98;;;;;;;2.31;57.37;94328.28;5044130;28;20102;-75
2023/01/08 07:37:02;;;;;;;45.47;31.98;;;;;;;2.48;57.41;94347.34;5037971;28;20029;-75
2023/01/08 07:39:28;;;;;;;49.15;32.83;;;;;;;2.59;57.64;94348.22;5036025;28;20044;-75
2023/01/08 07:41:53;;;;;;;51.90;33.42;;;;;;;2.72;57.30;94352.25;5040091;28;20045;-76
2023/01/08 07:44:18;;;;;;;43.53;31.77;;;;;;;2.82;57.05;94353.13;5034962;28;20041;-76
2023/01/08 07:46:44;;;;;;;46.30;32.92;;;;;;;2.57;57.85;94350.31;5037436;28;20092;-75
2023/01/08 07:49:10;;;;;;;49.03;31.13;;;;;;;2.85;57.43;94357.88;5051276;28;20045;-76
2023/01/08 07:51:36;;;;;;;46.92;32.40;;;;;;;3.00;57.23;94354.56;5036469;28;20073;-75
2023/01/08 07:54:01;;;;;;;45.75;31.27;;;;;;;2.82;57.28;94344.47;5037336;28;20071;-75
2023/01/08 07:56:26;;;;;;;46.58;33.10;;;;;;;2.44;59.04;94356.75;5034643;28;20096;-74
2023/01/08 07:58:52;;;;;;;60.63;32.92;;;;;;;2.22;60.41;94355.22;5036208;28;20059;-75
2023/01/08 08:01:17;;;;;;;50.90;33.17;;;;;;;1.94;61.29;94335.25;5035682;28;20028;-75
2023/01/08 08:03:43;;;;;;;55.55;35.92;;;;;;;2.24;61.72;94364.44;5036295;28;20071;-75
2023/01/08 08:06:08;;;;;;;63.03;41.55;;;;;;;1.46;63.97;94346.47;5037822;28;20033;-74
2023/01/08 08:08:34;;;;;;;64.80;39.60;;;;;;;2.13;62.01;94335.72;5037331;28;20539;-74
2023/01/08 08:11:00;;;;;;;59.67;38.75;;;;;;;2.49;60.38;94359.44;5038197;28;20039;-75
2023/01/08 08:13:25;;;;;;;54.95;36.03;;;;;;;2.33;61.80;94370.03;5041498;28;20021;-74
2023/01/08 08:15:51;;;;;;;48.08;33.22;;;;;;;2.56;59.96;94342.66;5041289;28;20531;-75
2023/01/08 08:18:17;;;;;;;48.63;30.33;;;;;;;2.87;59.15;94357.63;5040022;28;20088;-75
2023/01/08 08:20:42;;;;;;;39.30;28.92;;;;;;;2.51;59.74;94352.09;5039839;28;20029;-75
2023/01/08 08:23:13;;;;;;;44.28;30.58;;;;;;;2.35;60.63;94320.72;5042181;28;20045;-74
2023/01/08 08:25:40;;;;;;;45.65;31.73;;;;;;;3.00;59.55;94356.41;5038297;28;20021;-75
2023/01/08 08:28:08;;;;;;;47.97;31.25;;;;;;;3.09;58.86;94360.13;5037337;28;20029;-74
2023/01/08 08:30:34;;;;;;;45.55;30.52;;;;;;;3.15;58.90;94357.31;5038833;28;20432;-75
2023/01/08 08:33:02;;;;;;;44.35;31.17;;;;;;;2.84;58.83;94330.00;5039358;28;20041;-75
2023/01/08 08:35:29;;;;;;;44.08;28.95;;;;;;;2.42;61.42;94350.97;5039035;28;20049;-74
2023/01/08 08:37:55;;;;;;;39.42;27.58;;;;;;;2.90;60.40;94354.50;5044637;28;20056;-75
2023/01/08 08:40:20;;;;;;;41.72;28.42;;;;;;;2.77;60.18;94354.94;5045422;28;20028;-74
2023/01/08 08:42:46;;;;;;;52.38;33.78;;;;;;;2.48;61.10;94341.31;5045858;28;20108;-74
2023/01/08 08:45:11;;;;;;;49.17;31.85;;;;;;;2.99;60.56;94352.97;5037303;28;20099;-74
2023/01/08 08:47:37;;;;;;;48.95;32.67;;;;;;;2.61;62.17;94361.88;5041674;28;20041;-75
2023/01/08 08:50:04;;;;;;;48.03;33.03;;;;;;;2.19;63.49;94364.38;5041157;28;20404;-74
2023/01/08 08:52:31;;;;;;;52.75;35.65;;;;;;;2.65;62.86;94359.53;5047001;28;20113;-74
2023/01/08 08:54:57;;;;;;;49.22;35.92;;;;;;;2.66;61.10;94337.50;5037211;28;20108;-74
2023/01/08 08:57:26;;;;;;;52.67;36.42;;;;;;;2.08;63.61;94358.25;5042655;28;20464;-74
2023/01/08 08:59:52;;;;;;;52.95;33.67;;;;;;;2.56;62.62;94363.66;5047217;28;20051;-74
2023/01/08 09:02:17;;;;;;;48.40;33.30;;;;;;;3.12;60.41;94367.53;5039016;28;20044;-74
2023/01/08 09:04:43;;;;;;;44.10;30.45;;;;;;;3.48;58.07;94334.38;5039815;28;20024;-75
2023/01/08 09:07:08;;;;;;;41.55;30.52;;;;;;;3.71;57.22;94341.84;5042804;28;20059;-75
2023/01/08 09:09:33;;;;;;;49.97;31.52;;;;;;;3.60;56.87;94350.72;5038717;28;20526;-74
2023/01/08 09:11:59;;;;;;;43.35;30.13;;;;;;;3.50;58.33;94353.28;5037718;28;20042;-74
2023/01/08 09:14:25;;;;;;;42.67;29.23;;;;;;;3.17;59.00;94355.22;5040851;28;20322;-74
2023/01/08 09:16:50;;;;;;;46.40;29.15;;;;;;;3.49;58.47;94351.72;5041425;28;20045;-75
2023/01/08 09:19:16;;;;;;;46.38;33.83;;;;;;;3.22;59.56;94350.00;5046664;28;20025;-74
2023/01/08 09:21:41;;;;;;;43.95;30.08;;;;;;;3.26;58.71;94324.78;5039559;28;20488;-74
2023/01/08 09:24:07;;;;;;;45.30;30.40;;;;;;;3.66;57.42;94313.66;5045362;28;20037;-75
2023/01/08 09:26:33;;;;;;;40.50;29.75;;;;;;;4.08;56.41;94331.94;5038772;28;20033;-73
2023/01/08 09:28:58;;;;;;;48.00;31.17;;;;;;;4.03;56.94;94326.66;5039479;28;20030;-75
2023/01/08 09:31:25;;;;;;;46.80;31.60;;;;;;;3.91;56.31;94312.97;5035721;28;20036;-75
2023/01/08 09:33:50;;;;;;;47.75;30.30;;;;;;;3.94;56.71;94307.16;5037060;28;20050;-75
2023/01/08 09:36:16;;;;;;;42.78;28.65;;;;;;;3.24;58.61;94302.41;5042329;28;20095;-75
2023/01/08 09:38:43;;;;;;;61.45;37.00;;;;;;;3.96;57.07;94315.59;5040658;28;20041;-75
2023/01/08 09:41:18;;;;;;;41.13;27.45;;;;;;;3.50;58.18;94319.09;5038021;28;20056;-74
2023/01/08 09:43:47;;;;;;;47.63;29.63;;;;;;;3.58;57.96;94294.94;5046449;28;20489;-75
2023/01/08 09:46:14;;;;;;;40.35;28.52;;;;;;;3.71;57.48;94290.00;5040644;28;20034;-74
2023/01/08 09:48:40;;;;;;;39.33;26.48;;;;;;;4.23;56.31;94295.13;5039391;28;20033;-74
2023/01/08 09:51:13;;;;;;;38.85;25.25;;;;;;;4.35;55.59;94307.28;5035378;28;20588;-75
2023/01/08 09:53:39;;;;;;;44.55;29.70;;;;;;;4.72;54.80;94301.75;5038601;28;21472;-74
2023/01/08 09:56:13;;;;;;;29.40;23.70;;;;;;;5.01;53.18;94282.50;5038441;28;20041;-75
2023/01/08 09:58:53;;;;;;;34.15;23.52;;;;;;;5.18;53.10;94278.78;5030907;28;20018;-75
2023/01/08 10:01:38;;;;;;;34.60;22.20;;;;;;;5.40;52.67;94276.59;5036128;28;20038;-76
2023/01/08 10:04:22;;;;;;;36.05;23.40;;;;;;;5.13;52.01;94267.19;5046454;28;20076;-73
2023/01/08 10:07:10;;;;;;;39.03;23.90;;;;;;;5.16;52.64;94271.13;5040805;28;20051;-77
2023/01/08 10:09:35;;;;;;;32.78;24.05;;;;;;;5.23;52.50;94266.38;5028387;28;20505;-75
2023/01/08 10:12:04;;;;;;;31.20;23.35;;;;;;;5.40;51.87;94261.56;5028037;28;20071;-74
2023/01/08 10:14:33;;;;;;;36.17;23.58;;;;;;;4.94;52.82;94250.31;5023666;28;20033;-75
2023/01/08 10:17:04;;;;;;;28.05;22.08;;;;;;;5.47;51.72;94269.19;5023873;28;20116;-75
2023/01/08 10:19:29;;;;;;;35.75;22.05;;;;;;;5.73;51.14;94260.09;5025126;28;20205;-74
2023/01/08 10:21:56;;;;;;;35.00;24.13;;;;;;;5.94;50.29;94264.22;5026086;28;20020;-74
2023/01/08 10:24:40;;;;;;;33.72;23.95;;;;;;;5.44;51.08;94262.59;5024951;28;20092;-74
2023/01/08 10:27:18;;;;;;;32.25;23.55;;;;;;;5.57;50.98;94242.75;5033029;28;20044;-76
2023/01/08 10:29:44;;;;;;;34.42;23.42;;;;;;;5.50;51.01;94247.53;5034799;28;20064;-76
2023/01/08 10:32:25;;;;;;;31.13;22.90;;;;;;;5.51;51.09;94246.47;5033969;28;20053;-75
2023/01/08 10:34:54;;;;;;;30.38;21.35;;;;;;;5.66;51.25;94248.25;5032740;28;20234;-76
2023/01/08 10:37:28;;;;;;;34.22;22.02;;;;;;;5.37;51.43;94221.75;5033964;28;20561;-75
2023/01/08 10:39:59;;;;;;;24.30;18.48;;;;;;;5.65;50.26;94222.94;5033418;28;20045;-75
2023/01/08 10:42:25;;;;;;;26.23;18.70;;;;;;;6.07;49.78;94233.75;5032537;28;20472;-76
2023/01/08 10:44:56;;;;;;;32.72;21.67;;;;;;;6.02;48.96;94204.75;5032865;28;20041;-74
2023/01/08 10:47:23;;;;;;;28.38;19.95;;;;;;;6.35;48.59;94221.72;5034204;28;20111;-75
2023/01/08 10:49:49;;;;;;;29.75;21.42;;;;;;;6.24;48.94;94197.22;5033050;28;20053;-75
2023/01/08 10:52:32;;;;;;;29.77;21.67;;;;;;;6.40;48.78;94211.91;5034627;28;20039;-75
2023/01/08 10:55:27;;;;;;;40.38;22.30;;;;;;;6.19;49.14;94221.03;5044826;28;20045;-75
2023/01/08 10:57:55;;;;;;;33.50;23.55;;;;;;;6.48;48.52;94218.44;5038972;28;20053;-75
2023/01/08 11:00:22;;;;;;;42.53;28.70;;;;;;;6.87;47.89;94205.13;5043454;28;20079;-75
2023/01/08 11:02:49;;;;;;;39.97;27.85;;;;;;;6.75;47.98;94186.22;5034522;28;20053;-76
2023/01/08 11:05:14;;;;;;;35.85;27.77;;;;;;;6.96;47.46;94203.44;5034673;28;20111;-76
2023/01/08 11:07:40;;;;;;;37.65;26.65;;;;;;;7.02;47.22;94190.97;5035479;28;20104;-74
2023/01/08 11:10:21;;;;;;;33.35;24.75;;;;;;;7.04;47.10;94194.91;5035941;28;20032;-76
2023/01/08 11:12:46;;;;;;;38.53;25.92;;;;;;;7.17;46.58;94173.06;5035396;28;20033;-74
2023/01/08 11:15:17;;;;;;;39.80;26.60;;;;;;;7.35;46.65;94197.97;5035512;28;20094;-75
2023/01/08 11:17:43;;;;;;;30.90;23.30;;;;;;;7.30;46.57;94177.66;5041746;28;20065;-76
2023/01/08 11:20:19;;;;;;;34.55;25.60;;;;;;;7.56;46.06;94190.56;5036468;28;20045;-76
2023/01/08 11:22:45;;;;;;;38.28;24.95;;;;;;;7.69;45.68;94187.22;5040901;28;20070;-75
2023/01/08 11:25:19;;;;;;;34.97;25.52;;;;;;;7.89;45.32;94194.13;5034810;28;20029;-76
2023/01/08 11:27:45;;;;;;;40.97;28.33;;;;;;;6.39;47.88;94193.69;5031499;28;20096;-75
2023/01/08 11:30:15;;;;;;;37.38;26.00;;;;;;;6.98;47.02;94190.75;5032385;28;20029;-75
2023/01/08 11:32:45;;;;;;;37.83;26.05;;;;;;;7.30;46.65;94182.94;5040999;28;20299;-76
2023/01/08 11:35:16;;;;;;;35.20;26.88;;;;;;;7.12;46.31;94196.13;5040889;28;20993;-76